AEE57M LGAV-LCLK
Flight info
| Callsign | AEE57M |
|---|---|
| Flight time | 1h 17m |
| Altitude | 37000 |
| Route | KEA UL995 RDS UM601 EVENO M601 BONEK |
| Aircraft | A320/M-SDE3FGHIRWY/LB1 |
Departure
| Time | 2026-05-05 07:36 |
|---|---|
| Airport | Athens Eleftherios Venizelos International Airport (LGAV) |
Arrival
| Time | 2026-05-05 08:54 |
|---|---|
| Airport | Larnaca International Airport (LCLK) |
| Time | Latitude | Longitude | Altitude | Speed | Heading |
|---|---|---|---|---|---|
| 2026-05-05 07:14 | 37.94093 | 23.95420 | 300 ft | 0 kts | 218° |
| 2026-05-05 07:25 | 37.94106 | 23.95432 | 303 ft | 4 kts | 218° |
| 2026-05-05 07:26 | 37.94123 | 23.95449 | 301 ft | 4 kts | 218° |
| 2026-05-05 07:26 | 37.94144 | 23.95469 | 300 ft | 4 kts | 212° |
| 2026-05-05 07:26 | 37.94167 | 23.95482 | 300 ft | 4 kts | 176° |
| 2026-05-05 07:26 | 37.94184 | 23.95470 | 301 ft | 4 kts | 127° |
| 2026-05-05 07:27 | 37.94191 | 23.95458 | 300 ft | 0 kts | 127° |
| 2026-05-05 07:29 | 37.94184 | 23.95469 | 301 ft | 3 kts | 127° |
| 2026-05-05 07:29 | 37.94163 | 23.95506 | 300 ft | 8 kts | 127° |
| 2026-05-05 07:29 | 37.94120 | 23.95576 | 300 ft | 12 kts | 127° |
| 2026-05-05 07:30 | 37.94051 | 23.95649 | 297 ft | 15 kts | 179° |
| 2026-05-05 07:30 | 37.93848 | 23.95470 | 297 ft | 20 kts | 216° |
| 2026-05-05 07:30 | 37.93730 | 23.95358 | 297 ft | 22 kts | 217° |
| 2026-05-05 07:31 | 37.93616 | 23.95250 | 299 ft | 17 kts | 217° |
| 2026-05-05 07:31 | 37.93517 | 23.95156 | 300 ft | 19 kts | 216° |
| 2026-05-05 07:31 | 37.93409 | 23.95053 | 300 ft | 20 kts | 217° |
| 2026-05-05 07:31 | 37.93291 | 23.94941 | 301 ft | 22 kts | 216° |
| 2026-05-05 07:32 | 37.93184 | 23.94846 | 302 ft | 15 kts | 198° |
| 2026-05-05 07:32 | 37.93132 | 23.94908 | 297 ft | 0 kts | 79° |
| 2026-05-05 07:33 | 37.93137 | 23.94930 | 298 ft | 7 kts | 71° |
| 2026-05-05 07:33 | 37.93161 | 23.95026 | 293 ft | 14 kts | 92° |
| 2026-05-05 07:34 | 37.93191 | 23.95123 | 292 ft | 0 kts | 35° |
| 2026-05-05 07:35 | 37.93195 | 23.95127 | 292 ft | 4 kts | 35° |
| 2026-05-05 07:35 | 37.93362 | 23.95285 | 292 ft | 66 kts | 37° |
| 2026-05-05 07:36 | 37.93911 | 23.95807 | 279 ft | 127 kts | 37° |
| 2026-05-05 07:36 | 37.94740 | 23.96586 | 418 ft | 160 kts | 38° |
| 2026-05-05 07:36 | 37.95643 | 23.97443 | 1041 ft | 163 kts | 39° |
| 2026-05-05 07:36 | 37.96528 | 23.98348 | 1697 ft | 164 kts | 37° |
| 2026-05-05 07:37 | 37.97409 | 23.99266 | 2279 ft | 167 kts | 36° |
| 2026-05-05 07:37 | 37.98350 | 24.00206 | 2740 ft | 178 kts | 36° |
| 2026-05-05 07:37 | 37.99391 | 24.01213 | 3099 ft | 199 kts | 34° |
| 2026-05-05 07:37 | 38.00572 | 24.02307 | 3427 ft | 220 kts | 34° |
| 2026-05-05 07:38 | 38.01875 | 24.03517 | 3788 ft | 242 kts | 34° |
| 2026-05-05 07:38 | 38.03247 | 24.04807 | 4592 ft | 247 kts | 35° |
| 2026-05-05 07:38 | 38.04627 | 24.06115 | 5501 ft | 248 kts | 35° |
| 2026-05-05 07:38 | 38.06003 | 24.07429 | 6471 ft | 247 kts | 35° |
| 2026-05-05 07:39 | 38.07355 | 24.08730 | 7374 ft | 247 kts | 36° |
| 2026-05-05 07:39 | 38.08524 | 24.10348 | 8199 ft | 254 kts | 57° |
| 2026-05-05 07:39 | 38.09113 | 24.12495 | 8930 ft | 269 kts | 80° |
| 2026-05-05 07:39 | 38.08909 | 24.14925 | 9521 ft | 287 kts | 105° |
| 2026-05-05 07:40 | 38.08075 | 24.17274 | 10189 ft | 301 kts | 118° |
| 2026-05-05 07:40 | 38.06690 | 24.19412 | 10403 ft | 329 kts | 136° |
| 2026-05-05 07:40 | 38.04681 | 24.21018 | 10575 ft | 355 kts | 157° |
| 2026-05-05 07:40 | 38.02235 | 24.21738 | 11021 ft | 367 kts | 172° |
| 2026-05-05 07:41 | 37.99680 | 24.22165 | 11651 ft | 372 kts | 172° |
| 2026-05-05 07:41 | 37.97105 | 24.22611 | 12292 ft | 376 kts | 172° |
| 2026-05-05 07:41 | 37.94534 | 24.23064 | 12932 ft | 379 kts | 172° |
| 2026-05-05 07:41 | 37.91908 | 24.23530 | 13565 ft | 384 kts | 172° |
| 2026-05-05 07:42 | 37.89250 | 24.24005 | 14177 ft | 388 kts | 172° |
| 2026-05-05 07:42 | 37.86566 | 24.24483 | 14741 ft | 392 kts | 172° |
| 2026-05-05 07:42 | 37.83850 | 24.24963 | 15287 ft | 395 kts | 173° |
| 2026-05-05 07:42 | 37.81113 | 24.25440 | 15838 ft | 398 kts | 173° |
| 2026-05-05 07:43 | 37.78352 | 24.25918 | 16385 ft | 401 kts | 173° |
| 2026-05-05 07:43 | 37.75576 | 24.26399 | 16934 ft | 404 kts | 173° |
| 2026-05-05 07:43 | 37.72773 | 24.26886 | 17511 ft | 407 kts | 173° |
| 2026-05-05 07:43 | 37.69953 | 24.27375 | 18074 ft | 411 kts | 173° |
| 2026-05-05 07:44 | 37.67144 | 24.27864 | 18603 ft | 414 kts | 174° |
| 2026-05-05 07:44 | 37.64248 | 24.28370 | 19105 ft | 416 kts | 173° |
| 2026-05-05 07:44 | 37.61451 | 24.29173 | 19627 ft | 420 kts | 162° |
| 2026-05-05 07:44 | 37.58799 | 24.30742 | 20149 ft | 424 kts | 148° |
| 2026-05-05 07:45 | 37.56470 | 24.33037 | 20665 ft | 426 kts | 134° |
| 2026-05-05 07:45 | 37.54605 | 24.35930 | 21143 ft | 428 kts | 121° |
| 2026-05-05 07:45 | 37.53280 | 24.39290 | 21605 ft | 429 kts | 108° |
| 2026-05-05 07:45 | 37.52341 | 24.42859 | 22070 ft | 430 kts | 107° |
| 2026-05-05 07:46 | 37.51406 | 24.46458 | 22522 ft | 433 kts | 107° |
| 2026-05-05 07:46 | 37.50464 | 24.50079 | 22964 ft | 436 kts | 107° |
| 2026-05-05 07:46 | 37.49516 | 24.53714 | 23401 ft | 438 kts | 107° |
| 2026-05-05 07:46 | 37.48575 | 24.57320 | 23801 ft | 441 kts | 107° |
| 2026-05-05 07:47 | 37.47610 | 24.61006 | 24155 ft | 444 kts | 107° |
| 2026-05-05 07:47 | 37.46640 | 24.64709 | 24499 ft | 447 kts | 107° |
| 2026-05-05 07:47 | 37.45665 | 24.68436 | 24835 ft | 450 kts | 107° |
| 2026-05-05 07:47 | 37.44681 | 24.72187 | 25163 ft | 453 kts | 107° |
| 2026-05-05 07:48 | 37.43686 | 24.75958 | 25489 ft | 456 kts | 107° |
| 2026-05-05 07:48 | 37.42679 | 24.79751 | 25809 ft | 458 kts | 106° |
| 2026-05-05 07:48 | 37.41662 | 24.83578 | 26133 ft | 461 kts | 106° |
| 2026-05-05 07:48 | 37.40640 | 24.87417 | 26459 ft | 464 kts | 106° |
| 2026-05-05 07:49 | 37.39609 | 24.91296 | 26804 ft | 467 kts | 106° |
| 2026-05-05 07:49 | 37.38578 | 24.95176 | 27137 ft | 470 kts | 106° |
| 2026-05-05 07:49 | 37.37538 | 24.99086 | 27471 ft | 473 kts | 105° |
| 2026-05-05 07:49 | 37.36491 | 25.03020 | 27808 ft | 476 kts | 106° |
| 2026-05-05 07:50 | 37.35441 | 25.06970 | 28167 ft | 477 kts | 106° |
| 2026-05-05 07:50 | 37.34399 | 25.10882 | 28494 ft | 480 kts | 106° |
| 2026-05-05 07:50 | 37.33333 | 25.14871 | 28874 ft | 481 kts | 106° |
| 2026-05-05 07:50 | 37.32271 | 25.18841 | 29335 ft | 480 kts | 106° |
| 2026-05-05 07:51 | 37.31205 | 25.22822 | 29793 ft | 480 kts | 105° |
| 2026-05-05 07:51 | 37.30138 | 25.26792 | 30234 ft | 480 kts | 105° |
| 2026-05-05 07:51 | 37.29069 | 25.30768 | 30617 ft | 480 kts | 105° |
| 2026-05-05 07:51 | 37.27999 | 25.34731 | 31011 ft | 479 kts | 107° |
| 2026-05-05 07:52 | 37.26901 | 25.38673 | 31505 ft | 476 kts | 108° |
| 2026-05-05 07:52 | 37.25716 | 25.42559 | 31932 ft | 476 kts | 109° |
| 2026-05-05 07:52 | 37.24481 | 25.46358 | 32323 ft | 476 kts | 110° |
| 2026-05-05 07:52 | 37.23194 | 25.50194 | 32707 ft | 476 kts | 110° |
| 2026-05-05 07:53 | 37.21903 | 25.54018 | 33089 ft | 476 kts | 110° |
| 2026-05-05 07:53 | 37.20602 | 25.57848 | 33476 ft | 476 kts | 110° |
| 2026-05-05 07:53 | 37.19309 | 25.61672 | 33870 ft | 476 kts | 109° |
| 2026-05-05 07:53 | 37.18022 | 25.65498 | 34242 ft | 476 kts | 109° |
| 2026-05-05 07:54 | 37.16738 | 25.69329 | 34593 ft | 475 kts | 109° |
| 2026-05-05 07:54 | 37.15461 | 25.73148 | 34923 ft | 475 kts | 110° |
| 2026-05-05 07:54 | 37.14202 | 25.76917 | 35228 ft | 474 kts | 110° |
| 2026-05-05 07:54 | 37.12929 | 25.80728 | 35529 ft | 474 kts | 110° |
| 2026-05-05 07:55 | 37.11650 | 25.84557 | 35824 ft | 474 kts | 110° |
| 2026-05-05 07:55 | 37.10370 | 25.88383 | 36111 ft | 474 kts | 110° |
| 2026-05-05 07:55 | 37.09088 | 25.92202 | 36394 ft | 474 kts | 110° |
| 2026-05-05 07:55 | 37.07806 | 25.96005 | 36677 ft | 474 kts | 110° |
| 2026-05-05 07:56 | 37.06539 | 25.99754 | 36953 ft | 474 kts | 111° |
| 2026-05-05 07:56 | 37.05250 | 26.03564 | 37097 ft | 475 kts | 111° |
| 2026-05-05 07:56 | 37.02638 | 26.11273 | 37109 ft | 482 kts | 111° |
| 2026-05-05 07:57 | 37.00003 | 26.19028 | 37101 ft | 485 kts | 111° |
| 2026-05-05 07:57 | 36.97365 | 26.26800 | 37115 ft | 486 kts | 111° |
| 2026-05-05 07:58 | 36.94749 | 26.34528 | 37100 ft | 485 kts | 111° |
| 2026-05-05 07:58 | 36.92114 | 26.42304 | 37101 ft | 485 kts | 111° |
| 2026-05-05 07:59 | 36.89466 | 26.50061 | 37103 ft | 485 kts | 111° |
| 2026-05-05 07:59 | 36.86819 | 26.57822 | 37116 ft | 486 kts | 111° |
| 2026-05-05 08:00 | 36.84177 | 26.65530 | 37113 ft | 486 kts | 111° |
| 2026-05-05 08:00 | 36.81506 | 26.73273 | 37098 ft | 486 kts | 111° |
| 2026-05-05 08:01 | 36.78835 | 26.81026 | 37097 ft | 486 kts | 111° |
| 2026-05-05 08:01 | 36.76173 | 26.88760 | 37096 ft | 486 kts | 112° |
| 2026-05-05 08:02 | 36.73491 | 26.96504 | 37090 ft | 486 kts | 112° |
| 2026-05-05 08:02 | 36.70950 | 27.03808 | 37089 ft | 486 kts | 112° |
| 2026-05-05 08:03 | 36.68263 | 27.11528 | 37080 ft | 486 kts | 112° |
| 2026-05-05 08:03 | 36.65569 | 27.19254 | 37099 ft | 486 kts | 112° |
| 2026-05-05 08:04 | 36.62868 | 27.26970 | 37088 ft | 486 kts | 112° |
| 2026-05-05 08:04 | 36.61518 | 27.30822 | 37087 ft | 486 kts | 112° |
| 2026-05-05 08:05 | 36.58349 | 27.39832 | 37078 ft | 486 kts | 112° |
| 2026-05-05 08:05 | 36.54729 | 27.50077 | 37079 ft | 486 kts | 112° |
| 2026-05-05 08:06 | 36.52464 | 27.56478 | 37074 ft | 486 kts | 112° |
| 2026-05-05 08:06 | 36.49737 | 27.64168 | 37069 ft | 486 kts | 112° |
| 2026-05-05 08:07 | 36.46560 | 27.73088 | 37056 ft | 486 kts | 113° |
| 2026-05-05 08:07 | 36.43815 | 27.80772 | 37051 ft | 486 kts | 113° |
| 2026-05-05 08:08 | 36.41076 | 27.88437 | 37043 ft | 486 kts | 112° |
| 2026-05-05 08:08 | 36.38337 | 27.96113 | 37041 ft | 486 kts | 113° |
| 2026-05-05 08:09 | 36.36053 | 28.02479 | 37043 ft | 486 kts | 113° |
| 2026-05-05 08:09 | 36.33135 | 28.11557 | 37048 ft | 484 kts | 105° |
| 2026-05-05 08:10 | 36.31120 | 28.19505 | 37041 ft | 485 kts | 106° |
| 2026-05-05 08:10 | 36.29080 | 28.27449 | 37040 ft | 485 kts | 106° |
| 2026-05-05 08:11 | 36.27033 | 28.35421 | 37039 ft | 485 kts | 106° |
| 2026-05-05 08:11 | 36.24984 | 28.43398 | 37037 ft | 486 kts | 106° |
| 2026-05-05 08:12 | 36.22922 | 28.51376 | 37031 ft | 486 kts | 106° |
| 2026-05-05 08:12 | 36.20840 | 28.59358 | 37029 ft | 487 kts | 106° |
| 2026-05-05 08:13 | 36.18768 | 28.67290 | 37035 ft | 487 kts | 106° |
| 2026-05-05 08:13 | 36.16690 | 28.75283 | 37033 ft | 487 kts | 106° |
| 2026-05-05 08:14 | 36.14604 | 28.83275 | 37033 ft | 487 kts | 106° |
| 2026-05-05 08:14 | 36.12501 | 28.91255 | 37032 ft | 487 kts | 106° |
| 2026-05-05 08:15 | 36.10404 | 28.99177 | 37040 ft | 488 kts | 106° |
| 2026-05-05 08:15 | 36.08296 | 29.07142 | 37030 ft | 488 kts | 106° |
| 2026-05-05 08:16 | 36.06182 | 29.15111 | 37027 ft | 488 kts | 106° |
| 2026-05-05 08:16 | 36.04061 | 29.23088 | 37025 ft | 488 kts | 106° |
| 2026-05-05 08:17 | 36.01931 | 29.31059 | 37033 ft | 488 kts | 107° |
| 2026-05-05 08:17 | 35.99801 | 29.38992 | 37024 ft | 489 kts | 107° |
| 2026-05-05 08:18 | 35.97654 | 29.46963 | 37022 ft | 489 kts | 107° |
| 2026-05-05 08:18 | 35.95504 | 29.54935 | 37035 ft | 489 kts | 107° |
| 2026-05-05 08:19 | 35.93364 | 29.62915 | 37024 ft | 489 kts | 106° |
| 2026-05-05 08:19 | 35.91227 | 29.70899 | 37022 ft | 490 kts | 107° |
| 2026-05-05 08:20 | 35.89090 | 29.78829 | 37024 ft | 490 kts | 107° |
| 2026-05-05 08:20 | 35.86929 | 29.86809 | 37029 ft | 490 kts | 107° |
| 2026-05-05 08:21 | 35.84756 | 29.94793 | 37021 ft | 491 kts | 107° |
| 2026-05-05 08:21 | 35.82586 | 30.02796 | 37019 ft | 491 kts | 106° |
| 2026-05-05 08:22 | 35.80556 | 30.10790 | 37017 ft | 491 kts | 105° |
| 2026-05-05 08:22 | 35.78578 | 30.18856 | 37021 ft | 492 kts | 105° |
| 2026-05-05 08:23 | 35.76569 | 30.26921 | 37020 ft | 493 kts | 105° |
| 2026-05-05 08:23 | 35.74517 | 30.34987 | 37019 ft | 493 kts | 106° |
| 2026-05-05 08:24 | 35.72447 | 30.43045 | 37028 ft | 494 kts | 106° |
| 2026-05-05 08:24 | 35.70383 | 30.51109 | 37018 ft | 494 kts | 106° |
| 2026-05-05 08:25 | 35.68332 | 30.59134 | 37011 ft | 495 kts | 106° |
| 2026-05-05 08:25 | 35.66265 | 30.67235 | 37013 ft | 495 kts | 106° |
| 2026-05-05 08:26 | 35.64181 | 30.75323 | 37019 ft | 496 kts | 106° |
| 2026-05-05 08:26 | 35.62094 | 30.83355 | 37012 ft | 496 kts | 106° |
| 2026-05-05 08:27 | 35.60019 | 30.91444 | 37024 ft | 496 kts | 105° |
| 2026-05-05 08:27 | 35.57976 | 30.99543 | 37021 ft | 496 kts | 105° |
| 2026-05-05 08:28 | 35.55940 | 31.07649 | 37004 ft | 497 kts | 105° |
| 2026-05-05 08:28 | 35.53892 | 31.15723 | 37003 ft | 498 kts | 106° |
| 2026-05-05 08:29 | 35.51819 | 31.23841 | 37004 ft | 498 kts | 106° |
| 2026-05-05 08:30 | 35.48689 | 31.36048 | 37000 ft | 500 kts | 106° |
| 2026-05-05 08:30 | 35.46591 | 31.44195 | 36991 ft | 501 kts | 106° |
| 2026-05-05 08:31 | 35.44494 | 31.52339 | 36518 ft | 500 kts | 106° |
| 2026-05-05 08:31 | 35.43798 | 31.55036 | 36097 ft | 501 kts | 106° |
| 2026-05-05 08:31 | 35.42402 | 31.60440 | 35263 ft | 502 kts | 106° |
| 2026-05-05 08:31 | 35.41343 | 31.64517 | 34665 ft | 502 kts | 105° |
| 2026-05-05 08:32 | 35.40279 | 31.68593 | 34076 ft | 502 kts | 105° |
| 2026-05-05 08:32 | 35.39556 | 31.71362 | 33616 ft | 502 kts | 105° |
| 2026-05-05 08:32 | 35.38490 | 31.75435 | 32884 ft | 503 kts | 105° |
| 2026-05-05 08:32 | 35.37434 | 31.79469 | 32143 ft | 504 kts | 104° |
| 2026-05-05 08:33 | 35.36365 | 31.83565 | 31355 ft | 506 kts | 104° |
| 2026-05-05 08:33 | 35.35291 | 31.87688 | 30522 ft | 509 kts | 103° |
| 2026-05-05 08:33 | 35.34210 | 31.91830 | 29660 ft | 512 kts | 103° |
| 2026-05-05 08:33 | 35.33123 | 31.95985 | 28912 ft | 509 kts | 103° |
| 2026-05-05 08:34 | 35.32040 | 32.00095 | 28261 ft | 505 kts | 103° |
| 2026-05-05 08:34 | 35.30962 | 32.04170 | 27635 ft | 500 kts | 103° |
| 2026-05-05 08:34 | 35.29894 | 32.08202 | 27042 ft | 496 kts | 103° |
| 2026-05-05 08:34 | 35.28841 | 32.12208 | 26362 ft | 493 kts | 103° |
| 2026-05-05 08:35 | 35.27799 | 32.16197 | 25733 ft | 490 kts | 103° |
| 2026-05-05 08:35 | 35.26765 | 32.20174 | 25131 ft | 487 kts | 102° |
| 2026-05-05 08:35 | 35.25754 | 32.24058 | 24563 ft | 483 kts | 102° |
| 2026-05-05 08:35 | 35.24730 | 32.27962 | 23995 ft | 480 kts | 102° |
| 2026-05-05 08:36 | 35.23713 | 32.31830 | 23408 ft | 476 kts | 102° |
| 2026-05-05 08:36 | 35.22699 | 32.35672 | 22806 ft | 472 kts | 103° |
| 2026-05-05 08:36 | 35.21691 | 32.39490 | 22120 ft | 471 kts | 103° |
| 2026-05-05 08:36 | 35.20687 | 32.43294 | 21533 ft | 467 kts | 103° |
| 2026-05-05 08:37 | 35.19690 | 32.47062 | 21004 ft | 462 kts | 103° |
| 2026-05-05 08:37 | 35.18703 | 32.50791 | 20497 ft | 458 kts | 104° |
| 2026-05-05 08:37 | 35.17735 | 32.54437 | 20017 ft | 454 kts | 104° |
| 2026-05-05 08:37 | 35.16763 | 32.58092 | 19540 ft | 449 kts | 104° |
| 2026-05-05 08:38 | 35.15803 | 32.61704 | 19105 ft | 444 kts | 104° |
| 2026-05-05 08:38 | 35.14851 | 32.65287 | 18619 ft | 441 kts | 105° |
| 2026-05-05 08:38 | 35.13907 | 32.68840 | 18120 ft | 437 kts | 105° |
| 2026-05-05 08:38 | 35.12973 | 32.72354 | 17555 ft | 433 kts | 105° |
| 2026-05-05 08:39 | 35.12044 | 32.75835 | 17076 ft | 427 kts | 105° |
| 2026-05-05 08:39 | 35.11126 | 32.79261 | 16568 ft | 422 kts | 105° |
| 2026-05-05 08:39 | 35.10217 | 32.82644 | 16046 ft | 417 kts | 105° |
| 2026-05-05 08:39 | 35.09330 | 32.85946 | 15541 ft | 412 kts | 105° |
| 2026-05-05 08:40 | 35.08437 | 32.89254 | 15067 ft | 407 kts | 105° |
| 2026-05-05 08:40 | 35.07557 | 32.92520 | 14586 ft | 403 kts | 106° |
| 2026-05-05 08:40 | 35.06676 | 32.95752 | 14105 ft | 398 kts | 107° |
| 2026-05-05 08:40 | 35.05780 | 32.98929 | 13622 ft | 394 kts | 107° |
| 2026-05-05 08:41 | 35.04874 | 33.02072 | 13088 ft | 390 kts | 108° |
| 2026-05-05 08:41 | 35.03973 | 33.05163 | 12566 ft | 385 kts | 108° |
| 2026-05-05 08:41 | 35.03075 | 33.08235 | 12085 ft | 380 kts | 108° |
| 2026-05-05 08:41 | 35.02196 | 33.11249 | 11578 ft | 376 kts | 108° |
| 2026-05-05 08:42 | 35.01328 | 33.14241 | 11067 ft | 371 kts | 108° |
| 2026-05-05 08:42 | 35.00475 | 33.17202 | 10596 ft | 367 kts | 109° |
| 2026-05-05 08:42 | 34.99635 | 33.20130 | 10128 ft | 363 kts | 110° |
| 2026-05-05 08:42 | 34.98824 | 33.22957 | 9930 ft | 351 kts | 110° |
| 2026-05-05 08:43 | 34.98029 | 33.25719 | 9806 ft | 338 kts | 110° |
| 2026-05-05 08:43 | 34.97261 | 33.28375 | 9660 ft | 322 kts | 110° |
| 2026-05-05 08:43 | 34.96533 | 33.30880 | 9378 ft | 305 kts | 110° |
| 2026-05-05 08:43 | 34.95830 | 33.33292 | 8859 ft | 299 kts | 110° |
| 2026-05-05 08:44 | 34.95135 | 33.35678 | 8424 ft | 298 kts | 110° |
| 2026-05-05 08:44 | 34.94447 | 33.38047 | 8140 ft | 295 kts | 110° |
| 2026-05-05 08:44 | 34.93763 | 33.40396 | 7826 ft | 294 kts | 110° |
| 2026-05-05 08:44 | 34.93079 | 33.42736 | 7496 ft | 292 kts | 110° |
| 2026-05-05 08:45 | 34.92407 | 33.45034 | 7195 ft | 291 kts | 110° |
| 2026-05-05 08:45 | 34.91730 | 33.47348 | 6926 ft | 289 kts | 110° |
| 2026-05-05 08:45 | 34.91058 | 33.49653 | 6601 ft | 288 kts | 110° |
| 2026-05-05 08:45 | 34.90389 | 33.51951 | 6280 ft | 287 kts | 110° |
| 2026-05-05 08:46 | 34.89723 | 33.54231 | 5968 ft | 285 kts | 110° |
| 2026-05-05 08:46 | 34.89057 | 33.56503 | 5676 ft | 283 kts | 110° |
| 2026-05-05 08:46 | 34.88404 | 33.58728 | 5415 ft | 271 kts | 110° |
| 2026-05-05 08:46 | 34.87887 | 33.60854 | 5205 ft | 256 kts | 99° |
| 2026-05-05 08:47 | 34.87802 | 33.62980 | 4831 ft | 250 kts | 83° |
| 2026-05-05 08:47 | 34.88140 | 33.65009 | 4595 ft | 245 kts | 69° |
| 2026-05-05 08:47 | 34.88773 | 33.66919 | 4384 ft | 242 kts | 65° |
| 2026-05-05 08:47 | 34.89419 | 33.68816 | 4191 ft | 242 kts | 65° |
| 2026-05-05 08:48 | 34.90057 | 33.70713 | 3983 ft | 240 kts | 66° |
| 2026-05-05 08:48 | 34.90682 | 33.72571 | 3813 ft | 234 kts | 66° |
| 2026-05-05 08:48 | 34.91296 | 33.74395 | 3630 ft | 232 kts | 66° |
| 2026-05-05 08:48 | 34.91902 | 33.76196 | 3435 ft | 224 kts | 66° |
| 2026-05-05 08:49 | 34.92496 | 33.77893 | 3255 ft | 211 kts | 58° |
| 2026-05-05 08:49 | 34.93436 | 33.79134 | 3101 ft | 192 kts | 28° |
| 2026-05-05 08:49 | 34.94647 | 33.79643 | 2936 ft | 181 kts | 1° |
| 2026-05-05 08:49 | 34.95865 | 33.79449 | 2750 ft | 176 kts | 337° |
| 2026-05-05 08:50 | 34.96884 | 33.78635 | 2561 ft | 177 kts | 313° |
| 2026-05-05 08:50 | 34.97519 | 33.77360 | 2391 ft | 176 kts | 289° |
| 2026-05-05 08:50 | 34.97633 | 33.75871 | 2208 ft | 180 kts | 264° |
| 2026-05-05 08:50 | 34.97178 | 33.74447 | 2042 ft | 183 kts | 236° |
| 2026-05-05 08:51 | 34.96306 | 33.73319 | 1856 ft | 186 kts | 229° |
| 2026-05-05 08:51 | 34.95386 | 33.72199 | 1750 ft | 187 kts | 229° |
| 2026-05-05 08:51 | 34.94476 | 33.71088 | 1597 ft | 181 kts | 230° |
| 2026-05-05 08:51 | 34.93621 | 33.70043 | 1410 ft | 166 kts | 227° |
| 2026-05-05 08:52 | 34.92855 | 33.69105 | 1228 ft | 148 kts | 227° |
| 2026-05-05 08:52 | 34.92143 | 33.68234 | 1047 ft | 145 kts | 228° |
| 2026-05-05 08:52 | 34.91415 | 33.67361 | 894 ft | 147 kts | 229° |
| 2026-05-05 08:52 | 34.90683 | 33.66471 | 698 ft | 149 kts | 230° |
| 2026-05-05 08:53 | 34.89988 | 33.65584 | 518 ft | 145 kts | 229° |
| 2026-05-05 08:53 | 34.89279 | 33.64725 | 329 ft | 142 kts | 227° |
| 2026-05-05 08:53 | 34.88577 | 33.63876 | 147 ft | 142 kts | 229° |
| 2026-05-05 08:53 | 34.87893 | 33.63024 | 25 ft | 135 kts | 226° |
| 2026-05-05 08:54 | 34.87339 | 33.62349 | 18 ft | 88 kts | 225° |
| 2026-05-05 08:54 | 34.87068 | 33.62018 | 21 ft | 31 kts | 231° |
| 2026-05-05 08:54 | 34.87003 | 33.61894 | 21 ft | 17 kts | 247° |
| 2026-05-05 08:54 | 34.86961 | 33.61753 | 22 ft | 19 kts | 254° |
| 2026-05-05 08:55 | 34.86927 | 33.61593 | 19 ft | 19 kts | 255° |
| 2026-05-05 08:55 | 34.86908 | 33.61505 | 19 ft | 2 kts | 255° |
| 2026-05-05 08:55 | 34.86902 | 33.61478 | 19 ft | 5 kts | 255° |
| 2026-05-05 08:55 | 34.86885 | 33.61427 | 20 ft | 8 kts | 246° |
| 2026-05-05 08:56 | 34.86906 | 33.61356 | 17 ft | 11 kts | 313° |
| 2026-05-05 08:56 | 34.86962 | 33.61286 | 20 ft | 11 kts | 315° |
| 2026-05-05 08:56 | 34.87026 | 33.61210 | 20 ft | 14 kts | 316° |
| 2026-05-05 08:56 | 34.87039 | 33.61157 | 20 ft | 7 kts | 220° |
| 2026-05-05 08:57 | 34.87004 | 33.61119 | 20 ft | 2 kts | 225° |
| 2026-05-05 08:57 | 34.86996 | 33.61110 | 20 ft | 0 kts | 225° |